地図

経路データ

SID SEASON NUMBER BASIN SUBBASIN NAME ISO_TIME NATURE LAT LON WMO_WIND WMO_PRES WMO_AGENCY TRACK_TYPE DIST2LAND LANDFALL IFLAG USA_AGENCY USA_ATCF_ID USA_LAT USA_LON USA_RECORD USA_STATUS USA_WIND USA_PRES USA_SSHS USA_R34_NE USA_R34_SE USA_R34_SW USA_R34_NW USA_R50_NE USA_R50_SE USA_R50_SW USA_R50_NW USA_R64_NE USA_R64_SE USA_R64_SW USA_R64_NW USA_POCI USA_ROCI USA_RMW USA_EYE TOKYO_LAT TOKYO_LON TOKYO_GRADE TOKYO_WIND TOKYO_PRES TOKYO_R50_DIR TOKYO_R50_LONG TOKYO_R50_SHORT TOKYO_R30_DIR TOKYO_R30_LONG TOKYO_R30_SHORT TOKYO_LAND CMA_LAT CMA_LON CMA_CAT CMA_WIND CMA_PRES HKO_LAT HKO_LON HKO_CAT HKO_WIND HKO_PRES NEWDELHI_LAT NEWDELHI_LON NEWDELHI_GRADE NEWDELHI_WIND NEWDELHI_PRES NEWDELHI_CI NEWDELHI_DP NEWDELHI_POCI REUNION_LAT REUNION_LON REUNION_TYPE REUNION_WIND REUNION_PRES REUNION_TNUM REUNION_CI REUNION_RMW REUNION_R34_NE REUNION_R34_SE REUNION_R34_SW REUNION_R34_NW REUNION_R50_NE REUNION_R50_SE REUNION_R50_SW REUNION_R50_NW REUNION_R64_NE REUNION_R64_SE REUNION_R64_SW REUNION_R64_NW BOM_LAT BOM_LON BOM_TYPE BOM_WIND BOM_PRES BOM_TNUM BOM_CI BOM_RMW BOM_R34_NE BOM_R34_SE BOM_R34_SW BOM_R34_NW BOM_R50_NE BOM_R50_SE BOM_R50_SW BOM_R50_NW BOM_R64_NE BOM_R64_SE BOM_R64_SW BOM_R64_NW BOM_ROCI BOM_POCI BOM_EYE BOM_POS_METHOD BOM_PRES_METHOD NADI_LAT NADI_LON NADI_CAT NADI_WIND NADI_PRES WELLINGTON_LAT WELLINGTON_LON WELLINGTON_WIND WELLINGTON_PRES DS824_LAT DS824_LON DS824_STAGE DS824_WIND DS824_PRES TD9636_LAT TD9636_LON TD9636_STAGE TD9636_WIND TD9636_PRES TD9635_LAT TD9635_LON TD9635_WIND TD9635_PRES TD9635_ROCI NEUMANN_LAT NEUMANN_LON NEUMANN_CLASS NEUMANN_WIND NEUMANN_PRES MLC_LAT MLC_LON MLC_CLASS MLC_WIND MLC_PRES USA_GUST BOM_GUST BOM_GUST_PER REUNION_GUST REUNION_GUST_PER USA_SEAHGT USA_SEARAD_NE USA_SEARAD_SE USA_SEARAD_SW USA_SEARAD_NW STORM_SPEED STORM_DIR
2012180S11153 2012 32 SP EA NOT_NAMED 2012-06-28 00:00:00 NR -10.6000 152.700 main 218 218 O_____________ jtwc_sh SH212012 -10.6000 152.700 DB 20 1007 -3 4 106
2012180S11153 2012 32 SP EA NOT_NAMED 2012-06-28 03:00:00 NR -10.6550 152.897 main 240 240 P_____________ SH212012 -10.6550 152.897 DB 20 1007 -3 4 104
2012180S11153 2012 32 SP EA NOT_NAMED 2012-06-28 06:00:00 NR -10.7000 153.100 main 262 262 O_____________ jtwc_sh SH212012 -10.7000 153.100 DB 20 1007 -3 4 101
2012180S11153 2012 32 SP EA NOT_NAMED 2012-06-28 09:00:00 NR -10.7350 153.308 main 284 284 P_____________ SH212012 -10.7350 153.308 DB 22 1005 -3 4 104
2012180S11153 2012 32 SP EA NOT_NAMED 2012-06-28 12:00:00 TS -10.8000 153.500 main 306 306 O_____________ jtwc_sh SH212012 -10.8000 153.500 TD 25 1004 -1 4 121
2012180S11153 2012 32 SP EA NOT_NAMED 2012-06-28 15:00:00 TS -10.9425 153.658 main 329 329 P_____________ SH212012 -10.9425 153.658 TD 25 1004 -1 4 136
2012180S11153 2012 32 SP EA NOT_NAMED 2012-06-28 18:00:00 TS -11.1000 153.800 main 343 343 O_____________ jtwc_sh SH212012 -11.1000 153.800 TD 25 1004 -1 1007 200 40 4 134
2012180S11153 2012 32 SP EA NOT_NAMED 2012-06-28 21:00:00 TS -11.2000 153.935 main 356 356 P_____________ SH212012 -11.2000 153.935 TD 27 1002 -1 1007 200 40 4 124
2012180S11153 2012 32 SP EA NOT_NAMED 2012-06-29 00:00:00 TS -11.3000 154.100 main 379 379 O_____________ jtwc_sh SH212012 -11.3000 154.100 TD 30 1000 -1 1007 200 40 5 122
2012180S11153 2012 32 SP EA NOT_NAMED 2012-06-29 03:00:00 TS -11.4575 154.350 main 405 405 P_____________ SH212012 -11.4575 154.350 TD 30 1000 -1 1007 192 40 6 122
2012180S11153 2012 32 SP EA NOT_NAMED 2012-06-29 06:00:00 TS -11.6000 154.600 main 440 440 O_____________ jtwc_sh SH212012 -11.6000 154.600 TD 30 1000 -1 1007 185 40 5 119
2012180S11153 2012 32 SP EA NOT_NAMED 2012-06-29 09:00:00 TS -11.6875 154.780 main 462 456 P_____________ SH212012 -11.6875 154.780 TD 32 998 -1 1007 162 40 3 109
2012180S11153 2012 32 SP EA NOT_NAMED 2012-06-29 12:00:00 TS -11.7000 154.900 main 456 450 O_____________ jtwc_sh SH212012 -11.7000 154.900 TS 35 996 0 1007 140 40 2 78
2012180S11153 2012 32 SP EA NOT_NAMED 2012-06-29 15:00:00 TS -11.6450 154.988 main 441 432 P_____________ SH212012 -11.6450 154.988 TS 35 996 0 1006 140 40 2 27
2012180S11153 2012 32 SP EA NOT_NAMED 2012-06-29 18:00:00 TS -11.5000 155.000 main 432 413 O_____________ jtwc_sh SH212012 -11.5000 155.000 TS 35 996 0 40 40 30 30 1006 140 40 4 352
2012180S11153 2012 32 SP EA NOT_NAMED 2012-06-29 21:00:00 TS -11.2575 154.930 main 420 400 P_____________ SH212012 -11.2575 154.930 TS 32 998 -1 1006 140 40 5 338
2012180S11153 2012 32 SP EA NOT_NAMED 2012-06-30 00:00:00 TS -11.0000 154.800 main 400 392 O_____________ jtwc_sh SH212012 -11.0000 154.800 TD 30 1000 -1 1006 140 40 5 327
2012180S11153 2012 32 SP EA NOT_NAMED 2012-06-30 03:00:00 TS -10.8350 154.650 main 392 392 P_____________ SH212012 -10.8350 154.650 TD 27 1002 -1 1006 140 40 4 316
2012180S11153 2012 32 SP EA NOT_NAMED 2012-06-30 06:00:00 TS -10.7000 154.500 main 400 392 O_____________ jtwc_sh SH212012 -10.7000 154.500 TD 25 1004 -1 1006 140 40 4 318
2012180S11153 2012 32 SP EA NOT_NAMED 2012-06-30 09:00:00 TS -10.5575 154.393 main 401 393 P_____________ SH212012 -10.5575 154.393 TD 25 1004 -1 1007 132 40 4 327
2012180S11153 2012 32 SP EA NOT_NAMED 2012-06-30 12:00:00 TS -10.4000 154.300 main 394 383 O_____________ jtwc_sh SH212012 -10.4000 154.300 TD 25 1004 -1 1008 125 40 4 332
2012180S11153 2012 32 SP EA NOT_NAMED 2012-06-30 15:00:00 TS -10.2100 154.202 main 383 373 P_____________ SH212012 -10.2100 154.202 TD 20 1007 -1 4 334
2012180S11153 2012 32 SP EA NOT_NAMED 2012-06-30 18:00:00 NR -10.0000 154.100 main 373 O_____________ jtwc_sh SH212012 -10.0000 154.100 DB 15 1010 -3 5 334

デジタル台風データ・検索

IBTrACS Databaseについて

本データベースは、米国NOAAが公開する1842年以降の世界の熱帯低気圧のベストトラックデータアーカイブInternational Best Track Archive for Climate Stewardship (IBTrACS)を、ウェブで閲覧しやすい形式に変換したものです。

最終更新日:2021-11-26